Zhijiang, China
Current Conditions -  °F | °C
As of 10:00 PM on Thursday 23 Oct 2014 (Local Time) from ZGKL Reporting Station
Clear Clear  
Wind Chill: 64°   Ceiling: Unl
Heat Index: 64°   Visibility: 4mi
Dew Point: 59°   Wind: 4mph
Humidity: 83%   Direction: 300°WNW
Pressure: 30.06"   Gusts: NA
Location:  27.45°N, 109.68°E
Report Text: ZGKL 231400Z 30002MPS 270V340 6000 NSC 18/15 Q1018 NOSIG
Loading
Personal Weather Stations






























Interactive Weather Map
Tropical Storm Tracking
New forecast layout! Learn more

10-Day Weather Forecast

Advertisements
Track Severe Weather on mobile